EHBK 200025Z AUTO 35002KT 9999 BKN023/// OVC040/// 14/13 Q1022 EHBK 192355Z AUTO 35003KT 9999 BKN022 15/13 Q1022 EHBK 192325Z AUTO 33003KT 300V010 9999 OVC022 14/13 Q1022 EHBK 192255Z AUTO 33003KT 290V020 9999 OVC021 15/13 Q1022 EHBK 192225Z AUTO VRB02KT 9999 OVC022 15/13 Q1022 EHBK 192155Z AUTO VRB02KT 9999 BKN021 15/13 Q1022 EHBK 192125Z AUTO 31004KT 260V010 9999 FEW045 16/13 Q1022 EHBK 192055Z AUTO 32006KT 270V350 9999 BKN046 17/14 Q1022 NOSIG EHBK 192025Z AUTO 33007KT 9999 FEW045 17/14 Q1021 NOSIG EHBK 191955Z AUTO 32007KT 290V360 9999 FEW049 18/14 Q1021 NOSIG EHBK 191925Z AUTO 32007KT 280V350 9999 FEW040 19/15 Q1021 NOSIG EHBK 191855Z AUTO 27004KT 220V330 9999 NSC 21/16 Q1020 NOSIG EHBK 191825Z AUTO 25003KT 210V310 9999 SCT029 BKN033 OVC040 21/15 Q1020 NOSIG EHBK 191755Z AUTO 29005KT 240V350 9999 FEW030 BKN047 21/16 Q1020 NOSIG EHBK 191725Z AUTO 27003KT 230V320 9999 FEW027 SCT033 BKN041 22/16 Q1020 NOSIG EHBK 191655Z AUTO VRB03KT 9999 FEW028 21/16 Q1020 NOSIG EHBK 191625Z AUTO 29003KT 230V350 9999 SCT029 OVC034 20/16 Q1020 NOSIG EHBK 191555Z AUTO VRB02KT 9999 BKN032 OVC036 20/16 Q1020 NOSIG EHBK 191525Z AUTO VRB02KT 9999 FEW027 BKN031 20/16 Q1020 NOSIG EHBK 191455Z AUTO 14004KT 080V190 9999 NSC 20/17 Q1019 NOSIG EHBK 191425Z AUTO VRB02KT 9999 FEW015CB 19/17 Q1018 NOSIG EHBK 191355Z AUTO 28004KT 220V330 9999 NSC 18/16 Q1019 TEMPO 33018G28KT 5000 SHRA SCT040CB EHBK 191325Z AUTO 33006KT 290V020 9999 NSC 18/16 Q1018 TEMPO 33018G28KT 5000 SHRA SCT040CB EHBK 191255Z AUTO 31010KT 250V360 9999 TS FEW015CB 19/17 Q1019 RERAGR BECMG CAVOK EHBK 191225Z AUTO 30014KT 210V330 0450 R21/1500D +TSRA FEW001 SCT002 FEW015CB BKN025 16/16 Q1019 TEMPO 24022G32KT 2500 TSRA BKN070CB EHBK 191155Z AUTO 20011KT 150V250 9999 TS NSC 30/13 Q1015 TEMPO FM1215 24022G32KT 2500 TSRA BKN070CB EHBK 191125Z AUTO 20011KT 150V220 9999 NSC 29/14 Q1016 NOSIG EHBK 191055Z AUTO 19011KT 150V230 9999 NSC 29/13 Q1016 NOSIG EHBK 191025Z AUTO 17011KT 140V210 9999 NSC 30/13 Q1016 NOSIG EHBK 190955Z AUTO 14010KT 110V170 9999 NSC 28/13 Q1016 NOSIG EHBK 190925Z AUTO 13013KT 090V180 9999 NSC 27/14 Q1016 NOSIG EHBK 190855Z AUTO 14012KT 110V170 9999 NSC 27/14 Q1017 NOSIG EHBK 190825Z AUTO 12010KT 090V150 9999 NSC 25/15 Q1017 NOSIG EHBK 190755Z AUTO 12010KT 090V160 9999 NSC 25/15 Q1017 NOSIG EHBK 190725Z AUTO 10008KT 060V170 9999 NSC 24/15 Q1018 NOSIG EHBK 190655Z AUTO 08007KT 030V120 9999 NSC 23/15 Q1018 NOSIG EHBK 190625Z AUTO 06006KT 9999 NSC 23/15 Q1018 NOSIG EHBK 190555Z AUTO 35004KT 320V020 9999 NSC 22/14 Q1018 NOSIG EHBK 190525Z AUTO VRB02KT 9999 NSC 21/14 Q1018 NOSIG EHBK 190455Z AUTO 23004KT 200V290 9999 NSC 20/13 Q1018 NOSIG EHBK 190425Z AUTO 27006KT 210V330 9999 NSC 19/13 Q1018 NOSIG EHBK 190355Z AUTO 19006KT 9999 NSC 19/12 Q1017 NOSIG EHBK 190325Z AUTO 16004KT 9999 NSC 20/11 Q1017 EHBK 190255Z AUTO 15005KT 9999 NSC 19/12 Q1017 EHBK 190225Z AUTO 15005KT 9999 NSC 19/12 Q1017 EHBK 190155Z AUTO 18005KT 9999 NSC 18/13 Q1017 EHBK 190125Z AUTO 15005KT 9999 NSC 18/14 Q1017 EHBK 190055Z AUTO 18003KT 9999 NSC 18/14 Q1017 EHBK 190025Z AUTO 13002KT 9999 NSC 18/15 Q1017 EHBK 182355Z AUTO 09005KT 9999 NSC 18/15 Q1018 EHBK 182325Z AUTO 08003KT 9999 NSC 19/15 Q1018 EHBK 182255Z AUTO VRB02KT 9999 NSC 19/15 Q1018 EHBK 182225Z AUTO 08006KT 050V110 9999 NSC 20/15 Q1019 EHBK 182155Z AUTO 08004KT 060V120 9999 NSC 21/15 Q1019 EHBK 182125Z AUTO 07005KT 9999 NSC 21/15 Q1019 EHBK 182055Z AUTO 06006KT 9999 NSC 22/15 Q1019 EHBK 182025Z AUTO 03005KT 9999 NSC 22/15 Q1019 NOSIG EHBK 181955Z AUTO 04004KT 9999 NSC 22/15 Q1019 NOSIG EHBK 181925Z AUTO 03005KT 9999 NSC 23/15 Q1019 NOSIG EHBK 181855Z AUTO 02005KT 9999 NSC 24/15 Q1019 NOSIG EHBK 181825Z AUTO 01006KT 340V040 9999 NSC 25/15 Q1019 NOSIG EHBK 181755Z AUTO 35005KT 320V020 9999 NSC 25/15 Q1019 NOSIG EHBK 181725Z AUTO /////KT 9999 NSC 27/15 Q1019 NOSIG EHBK 181655Z AUTO 32004KT 260V010 9999 NSC 27/15 Q1019 NOSIG EHBK 181625Z AUTO 32004KT 260V360 9999 NSC 27/15 Q1020 NOSIG EHBK 181555Z AUTO 30005KT 240V020 9999 NSC 27/14 Q1020 NOSIG EHBK 181525Z AUTO 31005KT 200V350 9999 NSC 27/15 Q1020 NOSIG EHBK 181455Z AUTO 31005KT 230V010 9999 NSC 27/15 Q1020 NOSIG EHBK 181425Z AUTO 28006KT 230V340 9999 NSC 28/14 Q1020 NOSIG EHBK 181355Z AUTO 32004KT 250V050 9999 NSC 27/15 Q1020 NOSIG EHBK 181325Z AUTO 29005KT 210V340 9999 NSC 27/14 Q1020 NOSIG EHBK 181255Z AUTO 26006KT 220V300 9999 NSC 26/14 Q1020 NOSIG

METAR Messwerte "ZUID-LIMBURG/BEE" EHBK

Zurück zur Übersicht

Ortsname
Ländercode / m ü. NN
Zeit Temperatur Taupunkt Rel.
Luftfeuchte
Luftdruck:
Altimeter
NN
Station
Wind in Beaufort
(Knoten)
Sichtweite
(Meter)
Wolken
(Meter über Grund)
Wettererscheinung
ZUID-LIMBURG/BEE
NL 112
Fr 20.05. 02:25141394 %1022
1022
1009
N 1 (2)>= 10000Bedeckt (1200)
Stark bewölkt (700)
 
ZUID-LIMBURG/BEE
NL 112
Fr 20.05. 01:55151388 %1022
1022
1009
N 2 (3)>= 10000Stark bewölkt (670) 
ZUID-LIMBURG/BEE
NL 112
Fr 20.05. 01:25141394 %1022
1022
1009
NNW 2 (3)
WNW - N
>= 10000Bedeckt (670) 
ZUID-LIMBURG/BEE
NL 112
Fr 20.05. 00:55151388 %1022
1022
1009
NNW 2 (3)
WNW - NNO
>= 10000Bedeckt (640) 
ZUID-LIMBURG/BEE
NL 112
Fr 20.05. 00:25151388 %1022
1022
1009
Uml 1 (2)>= 10000Bedeckt (670) 
ZUID-LIMBURG/BEE
NL 112
Do 19.05. 23:55151388 %1022
1022
1009
Uml 1 (2)>= 10000Stark bewölkt (640) 
ZUID-LIMBURG/BEE
NL 112
Do 19.05. 23:25161382 %1022
1022
1009
NW 2 (4)
W - N
>= 10000Leicht bewölkt (1400) 
ZUID-LIMBURG/BEE
NL 112
Do 19.05. 22:55171482 %1022
1022
1009
NW 2 (6)
W - N
>= 10000Stark bewölkt (1400) 
ZUID-LIMBURG/BEE
NL 112
Do 19.05. 22:25171482 %1021
1021
1008
NNW 3 (7)>= 10000Leicht bewölkt (1400) 
ZUID-LIMBURG/BEE
NL 112
Do 19.05. 21:55181477 %1021
1021
1008
NW 3 (7)
WNW - N
>= 10000Leicht bewölkt (1500) 
ZUID-LIMBURG/BEE
NL 112
Do 19.05. 21:25191578 %1021
1021
1008
NW 3 (7)
W - N
>= 10000Leicht bewölkt (1200) 
ZUID-LIMBURG/BEE
NL 112
Do 19.05. 20:55211673 %1020
1020
1007
W 2 (4)
SW - NNW
>= 10000Nicht signifikant 
ZUID-LIMBURG/BEE
NL 112
Do 19.05. 20:25211569 %1020
1020
1007
WSW 2 (3)
SSW - NW
>= 10000Bedeckt (1200)
Stark bewölkt (1000)
Wolkig (880)
 
ZUID-LIMBURG/BEE
NL 112
Do 19.05. 19:55211673 %1020
1020
1007
WNW 2 (5)
WSW - N
>= 10000Stark bewölkt (1400)
Leicht bewölkt (910)
 
ZUID-LIMBURG/BEE
NL 112
Do 19.05. 19:25221669 %1020
1020
1007
W 2 (3)
SW - NW
>= 10000Stark bewölkt (1200)
Wolkig (1000)
Leicht bewölkt (820)
 
ZUID-LIMBURG/BEE
NL 112
Do 19.05. 18:55211673 %1020
1020
1007
Uml 2 (3)>= 10000Leicht bewölkt (850) 
ZUID-LIMBURG/BEE
NL 112
Do 19.05. 18:25201678 %1020
1020
1007
WNW 2 (3)
SW - N
>= 10000Bedeckt (1000)
Wolkig (880)
 
ZUID-LIMBURG/BEE
NL 112
Do 19.05. 17:55201678 %1020
1020
1007
Uml 1 (2)>= 10000Bedeckt (1100)
Stark bewölkt (980)
 
ZUID-LIMBURG/BEE
NL 112
Do 19.05. 17:25201678 %1020
1020
1007
Uml 1 (2)>= 10000Stark bewölkt (940)
Leicht bewölkt (820)
 
ZUID-LIMBURG/BEE
NL 112
Do 19.05. 16:55201783 %1019
1019
1006
SO 2 (4)
O - S
>= 10000Nicht signifikant 
ZUID-LIMBURG/BEE
NL 112
Do 19.05. 16:25191788 %1018
1018
1005
Uml 1 (2)>= 10000Leicht bewölkt Cb (460) 
ZUID-LIMBURG/BEE
NL 112
Do 19.05. 15:55181688 %1019
1019
1006
W 2 (4)
SW - NNW
Bald zeitweise:
NNW 5 (18) - 7 (28)
>= 10000
Bald zeitweise: 5000
Nicht signifikant Bald zeitweise: Regen-Schauer
ZUID-LIMBURG/BEE
NL 112
Do 19.05. 15:25181688 %1018
1018
1005
NNW 2 (6)
WNW - NNO
Bald zeitweise:
NNW 5 (18) - 7 (28)
>= 10000
Bald zeitweise: 5000
Nicht signifikant Bald zeitweise: Regen-Schauer
ZUID-LIMBURG/BEE
NL 112
Do 19.05. 14:55191788 %1019
1019
1006
NW 3 (10)
WSW - N
>= 10000Leicht bewölkt Cb (460) 
ZUID-LIMBURG/BEE
NL 112
Do 19.05. 14:251616100 %1019
1019
1006
WNW 4 (14)
SSW - NNW
Bald zeitweise:
WSW 6 (22) - 7 (32)
450
Bald zeitweise: 2500
Stark bewölkt (760)
Leicht bewölkt Cb (460)
Wolkig (61)
Leicht bewölkt (30)
Gewitter mit Regen (stark)
Bald zeitweise: Gewitter mit Regen
ZUID-LIMBURG/BEE
NL 112
Do 19.05. 13:55301335 %1015
1014
1002
SSW 4 (11)
SSO - WSW
Ab 14:15 zeitweise:
WSW 6 (22) - 7 (32)
>= 10000
Ab 14:15 zeitweise: 2500
Nicht signifikant Ab 14:15 zeitweise: Gewitter mit Regen
ZUID-LIMBURG/BEE
NL 112
Do 19.05. 13:25291440 %1016
1015
1003
SSW 4 (11)
SSO - SW
>= 10000Nicht signifikant 
ZUID-LIMBURG/BEE
NL 112
Do 19.05. 12:55291337 %1016
1015
1003
S 4 (11)
SSO - SW
>= 10000Nicht signifikant 
ZUID-LIMBURG/BEE
NL 112
Do 19.05. 12:25301335 %1016
1015
1003
S 4 (11)
SO - SSW
>= 10000Nicht signifikant 
ZUID-LIMBURG/BEE
NL 112
Do 19.05. 11:55281340 %1016
1015
1003
SO 3 (10)
OSO - S
>= 10000Nicht signifikant 
ZUID-LIMBURG/BEE
NL 112
Do 19.05. 11:25271445 %1016
1015
1003
SO 4 (13)
O - S
>= 10000Nicht signifikant 
ZUID-LIMBURG/BEE
NL 112
Do 19.05. 10:55271445 %1017
1016
1004
SO 4 (12)
OSO - S
>= 10000Nicht signifikant 
ZUID-LIMBURG/BEE
NL 112
Do 19.05. 10:25251554 %1017
1017
1004
OSO 3 (10)
O - SSO
>= 10000Nicht signifikant 
ZUID-LIMBURG/BEE
NL 112
Do 19.05. 09:55251554 %1017
1017
1004
OSO 3 (10)
O - SSO
>= 10000Nicht signifikant 
ZUID-LIMBURG/BEE
NL 112
Do 19.05. 09:25241557 %1018
1018
1005
O 3 (8)
ONO - S
>= 10000Nicht signifikant 
ZUID-LIMBURG/BEE
NL 112
Do 19.05. 08:55231561 %1018
1018
1005
O 3 (7)
NNO - OSO
>= 10000Nicht signifikant 
ZUID-LIMBURG/BEE
NL 112
Do 19.05. 08:25231561 %1018
1018
1005
ONO 2 (6)>= 10000Nicht signifikant 
ZUID-LIMBURG/BEE
NL 112
Do 19.05. 07:55221460 %1018
1018
1005
N 2 (4)
NW - NNO
>= 10000Nicht signifikant 
ZUID-LIMBURG/BEE
NL 112
Do 19.05. 07:25211464 %1018
1018
1005
Uml 1 (2)>= 10000Nicht signifikant 
ZUID-LIMBURG/BEE
NL 112
Do 19.05. 06:55201364 %1018
1018
1005
SW 2 (4)
SSW - WNW
>= 10000Nicht signifikant 
ZUID-LIMBURG/BEE
NL 112
Do 19.05. 06:25191368 %1018
1018
1005
W 2 (6)
SSW - NNW
>= 10000Nicht signifikant 
ZUID-LIMBURG/BEE
NL 112
Do 19.05. 05:55191264 %1017
1017
1004
S 2 (6)>= 10000Nicht signifikant 
ZUID-LIMBURG/BEE
NL 112
Do 19.05. 05:25201156 %1017
1017
1004
SSO 2 (4)>= 10000Nicht signifikant 
ZUID-LIMBURG/BEE
NL 112
Do 19.05. 04:55191264 %1017
1017
1004
SSO 2 (5)>= 10000Nicht signifikant 
ZUID-LIMBURG/BEE
NL 112
Do 19.05. 04:25191264 %1017
1017
1004
SSO 2 (5)>= 10000Nicht signifikant 
ZUID-LIMBURG/BEE
NL 112
Do 19.05. 03:55181373 %1017
1017
1004
S 2 (5)>= 10000Nicht signifikant 
ZUID-LIMBURG/BEE
NL 112
Do 19.05. 03:25181477 %1017
1017
1004
SSO 2 (5)>= 10000Nicht signifikant 
ZUID-LIMBURG/BEE
NL 112
Do 19.05. 02:55181477 %1017
1017
1004
S 2 (3)>= 10000Nicht signifikant 
ZUID-LIMBURG/BEE
NL 112
Do 19.05. 02:25181583 %1017
1017
1004
SO 1 (2)>= 10000Nicht signifikant 
ZUID-LIMBURG/BEE
NL 112
Do 19.05. 01:55181583 %1018
1018
1005
O 2 (5)>= 10000Nicht signifikant 
ZUID-LIMBURG/BEE
NL 112
Do 19.05. 01:25191578 %1018
1018
1005
O 2 (3)>= 10000Nicht signifikant 
ZUID-LIMBURG/BEE
NL 112
Do 19.05. 00:55191578 %1018
1018
1005
Uml 1 (2)>= 10000Nicht signifikant 
ZUID-LIMBURG/BEE
NL 112
Do 19.05. 00:25201573 %1019
1019
1006
O 2 (6)
NO - OSO
>= 10000Nicht signifikant 
ZUID-LIMBURG/BEE
NL 112
Mi 18.05. 23:55211569 %1019
1019
1006
O 2 (4)
ONO - OSO
>= 10000Nicht signifikant 
ZUID-LIMBURG/BEE
NL 112
Mi 18.05. 23:25211569 %1019
1019
1006
ONO 2 (5)>= 10000Nicht signifikant 
ZUID-LIMBURG/BEE
NL 112
Mi 18.05. 22:55221565 %1019
1019
1006
ONO 2 (6)>= 10000Nicht signifikant 
ZUID-LIMBURG/BEE
NL 112
Mi 18.05. 22:25221565 %1019
1019
1006
NNO 2 (5)>= 10000Nicht signifikant 
ZUID-LIMBURG/BEE
NL 112
Mi 18.05. 21:55221565 %1019
1019
1006
NO 2 (4)>= 10000Nicht signifikant 
ZUID-LIMBURG/BEE
NL 112
Mi 18.05. 21:25231561 %1019
1019
1006
NNO 2 (5)>= 10000Nicht signifikant 
ZUID-LIMBURG/BEE
NL 112
Mi 18.05. 20:55241557 %1019
1019
1006
NNO 2 (5)>= 10000Nicht signifikant 
ZUID-LIMBURG/BEE
NL 112
Mi 18.05. 20:25251554 %1019
1019
1006
N 2 (6)
NNW - NO
>= 10000Nicht signifikant 
ZUID-LIMBURG/BEE
NL 112
Mi 18.05. 19:55251554 %1019
1019
1006
N 2 (5)
NW - NNO
>= 10000Nicht signifikant 
ZUID-LIMBURG/BEE
NL 112
Mi 18.05. 19:25271548 %1019
1018
1006
 >= 10000Nicht signifikant 
ZUID-LIMBURG/BEE
NL 112
Mi 18.05. 18:55271548 %1019
1018
1006
NW 2 (4)
W - N
>= 10000Nicht signifikant 
ZUID-LIMBURG/BEE
NL 112
Mi 18.05. 18:25271548 %1020
1019
1007
NW 2 (4)
W - N
>= 10000Nicht signifikant 
ZUID-LIMBURG/BEE
NL 112
Mi 18.05. 17:55271445 %1020
1019
1007
WNW 2 (5)
WSW - NNO
>= 10000Nicht signifikant 
ZUID-LIMBURG/BEE
NL 112
Mi 18.05. 17:25271548 %1020
1019
1007
NW 2 (5)
SSW - N
>= 10000Nicht signifikant 
ZUID-LIMBURG/BEE
NL 112
Mi 18.05. 16:55271548 %1020
1019
1007
NW 2 (5)
SW - N
>= 10000Nicht signifikant 
ZUID-LIMBURG/BEE
NL 112
Mi 18.05. 16:25281442 %1020
1019
1007
W 2 (6)
SW - NNW
>= 10000Nicht signifikant 
ZUID-LIMBURG/BEE
NL 112
Mi 18.05. 15:55271548 %1020
1019
1007
NW 2 (4)
WSW - NO
>= 10000Nicht signifikant 
ZUID-LIMBURG/BEE
NL 112
Mi 18.05. 15:25271445 %1020
1019
1007
WNW 2 (5)
SSW - NNW
>= 10000Nicht signifikant 
ZUID-LIMBURG/BEE
NL 112
Mi 18.05. 14:55261448 %1020
1020
1007
W 2 (6)
SW - WNW
>= 10000Nicht signifikant 

Altimeter: Einstellung am Altimeter (Höhenmesser), die Höhe 0 muss auf diesen Luftdruckwert zeigen, damit das Gerät die Stationshöhe richtig anzeigt.

NN: Luftdruck reduziert auf "Normal Null", auf Meereshöhe, dieser von der Temperatur abhängige Wert wird bisweilen unkorrekt einfach als "Luftdruck" bezeichnet. Eigentlich nur eine fiktive Größe, die es erlaubt, Stationen auf unterschiedlichen Höhen miteinander zu vergleichen.

Station: Realer Luftdruck an der Station.